Time;durP1;ratioP1;P1;durP2;ratioP2;P2;SDS_P1;SDS_P2;PMS_P1;PMS_P2;Temp;Humidity;BMP_temperature;BMP_pressure;BME280_temperature;BME280_humidity;BME280_pressure;Samples;Min_cycle;Max_cycle;Signal;HPM_P1;HPM_P2
2023/10/15 00:02:24;;;;;;;17.77;5.27;;;;;7.50;96384.00;;;;8325311;28;20323;-68
2023/10/15 00:06:27;;;;;;;14.60;5.30;;;;;7.60;96394.00;;;;8319459;28;20279;-68
2023/10/15 00:10:31;;;;;;;15.10;4.93;;;;;7.60;96399.00;;;;8321811;28;20198;-68
2023/10/15 00:14:37;;;;;;;20.57;5.53;;;;;7.60;96390.00;;;;8325729;28;20624;-68
2023/10/15 00:18:42;;;;;;;21.30;5.37;;;;;7.70;96390.00;;;;8312769;28;20254;-68
2023/10/15 00:22:45;;;;;;;21.77;5.10;;;;;7.70;96387.00;;;;8321835;28;20194;-68
2023/10/15 00:26:49;;;;;;;16.63;5.17;;;;;7.70;96389.00;;;;8314183;28;20229;-68
2023/10/15 00:30:52;;;;;;;17.20;5.10;;;;;7.80;96377.00;;;;8322561;28;20734;-68
2023/10/15 00:34:56;;;;;;;14.27;5.50;;;;;7.80;96380.00;;;;8323164;28;20193;-69
2023/10/15 00:38:59;;;;;;;15.43;5.07;;;;;7.80;96381.00;;;;8315236;28;20235;-68
2023/10/15 00:43:03;;;;;;;15.23;5.13;;;;;7.80;96386.00;;;;8313331;28;20220;-68
2023/10/15 00:47:15;;;;;;;15.03;4.73;;;;;7.90;96384.00;;;;8314514;28;20220;-69
2023/10/15 00:51:20;;;;;;;18.13;4.50;;;;;7.90;96378.00;;;;8322771;28;20289;-69
2023/10/15 00:55:24;;;;;;;16.23;4.90;;;;;7.90;96384.00;;;;8312123;28;20707;-68
2023/10/15 00:59:43;;;;;;;12.57;4.43;;;;;7.90;96378.00;;;;8304584;28;20255;-69
2023/10/15 01:03:53;;;;;;;13.20;4.53;;;;;7.90;96380.00;;;;8314131;28;20231;-69
2023/10/15 01:08:02;;;;;;;14.27;4.43;;;;;7.80;96379.00;;;;8311259;28;20316;-69
2023/10/15 01:12:19;;;;;;;19.53;4.87;;;;;7.80;96388.00;;;;8314354;28;20194;-69
2023/10/15 01:16:27;;;;;;;15.77;4.23;;;;;7.70;96386.00;;;;8319911;28;20667;-69
2023/10/15 01:20:30;;;;;;;9.77;3.90;;;;;7.50;96374.00;;;;8314758;28;20202;-69
2023/10/15 01:24:37;;;;;;;15.37;3.83;;;;;7.40;96374.00;;;;8318391;28;20206;-69
2023/10/15 01:28:43;;;;;;;7.60;4.27;;;;;7.30;96386.00;;;;8314260;28;20225;-69
2023/10/15 01:32:47;;;;;;;9.50;4.00;;;;;7.20;96382.00;;;;8321293;28;20198;-69
2023/10/15 01:36:51;;;;;;;14.07;3.63;;;;;7.10;96389.00;;;;8316211;28;20942;-69
2023/10/15 01:40:56;;;;;;;22.30;4.07;;;;;7.10;96388.00;;;;8313009;28;20280;-69
2023/10/15 01:45:13;;;;;;;17.90;4.23;;;;;7.00;96376.00;;;;8314557;28;20202;-69
2023/10/15 01:49:31;;;;;;;11.87;4.00;;;;;7.00;96373.00;;;;8313949;28;20240;-68
2023/10/15 01:53:37;;;;;;;13.90;4.20;;;;;6.90;96372.00;;;;8325419;28;20267;-68
2023/10/15 01:57:41;;;;;;;15.47;3.80;;;;;6.90;96371.00;;;;8327700;28;20208;-69
2023/10/15 02:01:50;;;;;;;15.57;4.30;;;;;6.90;96370.00;;;;8322137;28;20312;-69
2023/10/15 02:05:54;;;;;;;12.30;4.00;;;;;6.80;96374.00;;;;8320101;28;20705;-69
2023/10/15 02:09:57;;;;;;;10.87;3.60;;;;;6.60;96359.00;;;;8333292;28;20558;-69
2023/10/15 02:14:00;;;;;;;13.37;4.03;;;;;6.50;96357.00;;;;8320391;28;20200;-69
2023/10/15 02:18:06;;;;;;;9.93;3.80;;;;;6.40;96365.00;;;;8317538;28;20227;-69
2023/10/15 02:22:12;;;;;;;10.97;3.17;;;;;6.20;96358.00;;;;8325761;28;20635;-68
2023/10/15 02:26:18;;;;;;;8.90;3.50;;;;;6.00;96356.00;;;;8327614;28;20239;-69
2023/10/15 02:30:21;;;;;;;9.93;3.73;;;;;5.80;96362.00;;;;8324917;28;20240;-69
2023/10/15 02:34:27;;;;;;;10.50;3.83;;;;;5.60;96364.00;;;;8325861;28;20690;-69
2023/10/15 02:38:34;;;;;;;8.27;3.37;;;;;5.50;96374.00;;;;8319721;28;20202;-69
2023/10/15 02:42:38;;;;;;;12.07;3.13;;;;;5.30;96371.00;;;;8320547;28;20981;-69
2023/10/15 02:46:47;;;;;;;9.57;3.33;;;;;5.20;96361.00;;;;8320741;28;20225;-69
2023/10/15 02:51:00;;;;;;;17.33;4.07;;;;;5.10;96365.00;;;;8321220;28;20201;-69
2023/10/15 02:55:09;;;;;;;7.33;3.23;;;;;5.10;96365.00;;;;8308476;28;20199;-69
2023/10/15 02:59:15;;;;;;;11.07;4.00;;;;;5.10;96374.00;;;;8314228;28;20205;-69
2023/10/15 03:03:23;;;;;;;12.63;3.70;;;;;5.10;96368.00;;;;8340044;23;20318;-69
2023/10/15 03:07:30;;;;;;;11.70;3.90;;;;;5.00;96370.00;;;;8291164;28;20302;-69
2023/10/15 03:11:33;;;;;;;10.40;3.37;;;;;5.00;96381.00;;;;8294814;28;20208;-68
2023/10/15 03:15:46;;;;;;;10.93;3.73;;;;;5.00;96369.00;;;;8296086;28;20369;-68
2023/10/15 03:19:49;;;;;;;8.53;3.90;;;;;5.00;96372.00;;;;8290397;28;20193;-68
2023/10/15 03:23:56;;;;;;;8.27;3.90;;;;;5.00;96386.00;;;;8297005;28;20209;-68
2023/10/15 03:28:00;;;;;;;7.60;3.53;;;;;4.90;96379.00;;;;8287220;28;20253;-69
2023/10/15 03:32:09;;;;;;;12.63;3.77;;;;;4.90;96379.00;;;;8294211;28;20201;-69
2023/10/15 03:36:13;;;;;;;11.80;4.77;;;;;5.00;96389.00;;;;8291123;28;20204;-69
2023/10/15 03:40:30;;;;;;;18.07;4.60;;;;;5.20;96388.00;;;;8293018;28;20231;-69
2023/10/15 03:44:35;;;;;;;16.87;4.40;;;;;5.40;96388.00;;;;8285528;28;20208;-66
2023/10/15 03:48:47;;;;;;;17.47;4.23;;;;;5.40;96394.00;;;;8281652;28;20778;-69
2023/10/15 03:52:51;;;;;;;14.90;4.93;;;;;5.50;96388.00;;;;8281613;28;20566;-69
2023/10/15 03:56:56;;;;;;;16.57;5.20;;;;;5.60;96384.00;;;;8281491;28;20256;-68
2023/10/15 04:01:11;;;;;;;20.07;4.23;;;;;5.60;96384.00;;;;8282279;28;20744;-68
2023/10/15 04:05:20;;;;;;;13.70;4.00;;;;;5.60;96378.00;;;;8236182;28;20511;-68
2023/10/15 04:09:25;;;;;;;9.37;3.30;;;;;5.50;96381.00;;;;8250987;28;20234;-68
2023/10/15 04:13:29;;;;;;;15.97;3.93;;;;;5.30;96372.00;;;;8260216;28;20206;-68
2023/10/15 04:17:33;;;;;;;12.50;3.57;;;;;5.30;96385.00;;;;8249605;28;20202;-69
2023/10/15 04:21:38;;;;;;;11.90;3.67;;;;;5.10;96380.00;;;;8251516;28;20228;-69
2023/10/15 04:25:42;;;;;;;152.60;8.40;;;;;5.00;96379.00;;;;8260161;28;20635;-68
2023/10/15 04:29:50;;;;;;;13.50;3.30;;;;;4.70;96372.00;;;;8256177;28;20236;-68
2023/10/15 04:33:54;;;;;;;16.37;3.47;;;;;4.60;96374.00;;;;8257799;28;20213;-68
2023/10/15 04:37:59;;;;;;;25.03;4.30;;;;;4.50;96371.00;;;;8262190;28;20722;-67
2023/10/15 04:42:06;;;;;;;12.00;4.13;;;;;4.60;96374.00;;;;8253133;28;20216;-68
2023/10/15 04:46:17;;;;;;;10.40;4.30;;;;;4.70;96379.00;;;;8247112;28;20202;-68
2023/10/15 04:50:26;;;;;;;12.23;4.30;;;;;4.90;96375.00;;;;8244587;28;20419;-69
2023/10/15 04:54:30;;;;;;;16.77;6.17;;;;;5.20;96370.00;;;;8253791;28;20202;-68
2023/10/15 04:58:34;;;;;;;24.37;4.30;;;;;5.40;96375.00;;;;8250727;28;20216;-68
2023/10/15 05:02:48;;;;;;;15.53;4.33;;;;;5.50;96372.00;;;;8251723;28;20701;-69
2023/10/15 05:06:51;;;;;;;17.50;4.17;;;;;5.60;96358.00;;;;8254689;28;20759;-68
2023/10/15 05:10:55;;;;;;;13.57;4.33;;;;;5.60;96373.00;;;;8252414;28;20198;-68
2023/10/15 05:14:58;;;;;;;10.93;4.30;;;;;5.70;96371.00;;;;8249068;28;20203;-69
2023/10/15 05:19:03;;;;;;;16.97;4.70;;;;;5.80;96365.00;;;;8253130;28;20226;-69
2023/10/15 05:23:06;;;;;;;14.60;4.30;;;;;5.80;96370.00;;;;8238098;28;20199;-69
2023/10/15 05:27:12;;;;;;;23.57;4.77;;;;;5.90;96366.00;;;;8252792;28;20220;-69
2023/10/15 05:31:15;;;;;;;16.57;4.43;;;;;5.90;96368.00;;;;8252267;28;20294;-69
2023/10/15 05:35:20;;;;;;;22.13;4.83;;;;;6.10;96374.00;;;;8262738;28;20608;-68
2023/10/15 05:39:24;;;;;;;20.33;4.53;;;;;6.20;96369.00;;;;8266677;28;20237;-69
2023/10/15 05:43:27;;;;;;;22.80;4.57;;;;;6.40;96378.00;;;;8262893;28;20210;-69
2023/10/15 05:47:31;;;;;;;18.90;3.93;;;;;6.50;96387.00;;;;8266531;28;20258;-68
2023/10/15 05:51:35;;;;;;;8.77;3.83;;;;;6.50;96395.00;;;;8248778;28;20198;-67
2023/10/15 05:55:38;;;;;;;12.03;5.67;;;;;6.30;96402.00;;;;8263469;28;20225;-70
2023/10/15 05:59:42;;;;;;;16.10;5.87;;;;;6.20;96398.00;;;;8252999;28;20317;-69
2023/10/15 06:03:47;;;;;;;15.67;5.20;;;;;6.20;96396.00;;;;8251424;28;20309;-67
2023/10/15 06:07:54;;;;;;;11.00;5.20;;;;;6.30;96395.00;;;;8239041;28;20285;-67
2023/10/15 06:11:58;;;;;;;10.33;4.47;;;;;6.30;96409.00;;;;8247171;28;20716;-66
2023/10/15 06:16:03;;;;;;;10.17;4.20;;;;;6.40;96408.00;;;;8237103;28;20326;-66
2023/10/15 06:20:13;;;;;;;15.40;5.30;;;;;6.50;96409.00;;;;8239058;28;20196;-67
2023/10/15 06:24:18;;;;;;;14.97;4.93;;;;;6.60;96418.00;;;;8243654;28;20204;-67
2023/10/15 06:28:22;;;;;;;8.93;4.70;;;;;6.70;96425.00;;;;8251983;28;20235;-67
2023/10/15 06:32:25;;;;;;;16.53;5.00;;;;;6.90;96424.00;;;;8265221;28;20201;-67
2023/10/15 06:36:28;;;;;;;16.93;4.63;;;;;6.90;96420.00;;;;8248989;28;20205;-67
2023/10/15 06:40:35;;;;;;;15.87;5.53;;;;;7.00;96423.00;;;;8247584;28;20314;-67
2023/10/15 06:44:38;;;;;;;11.83;4.77;;;;;7.20;96432.00;;;;8251983;28;20612;-66
2023/10/15 06:48:42;;;;;;;9.77;4.20;;;;;7.20;96438.00;;;;8253656;28;20230;-67
2023/10/15 06:52:45;;;;;;;12.50;5.10;;;;;7.30;96436.00;;;;8246465;28;20208;-66
2023/10/15 06:56:50;;;;;;;12.00;5.53;;;;;7.40;96446.00;;;;8249562;28;20219;-66
2023/10/15 07:00:57;;;;;;;18.47;4.63;;;;;7.50;96439.00;;;;8265535;28;20256;-67
2023/10/15 07:05:01;;;;;;;12.23;5.07;;;;;7.60;96455.00;;;;8256077;28;20227;-66
2023/10/15 07:09:04;;;;;;;17.03;4.97;;;;;7.70;96458.00;;;;8268500;28;20245;-66
2023/10/15 07:13:10;;;;;;;15.17;4.90;;;;;7.80;96458.00;;;;8251622;28;20285;-67
2023/10/15 07:17:13;;;;;;;17.97;5.53;;;;;8.00;96452.00;;;;8243114;28;20799;-65
2023/10/15 07:21:16;;;;;;;13.43;4.87;;;;;8.10;96450.00;;;;8247838;28;20202;-65
2023/10/15 07:25:20;;;;;;;17.27;4.90;;;;;8.20;96461.00;;;;8260520;28;20226;-65
2023/10/15 07:29:27;;;;;;;13.57;4.67;;;;;8.20;96463.00;;;;8253032;28;20247;-66
2023/10/15 07:33:31;;;;;;;14.23;4.80;;;;;8.40;96453.00;;;;8236398;28;20202;-65
2023/10/15 07:37:35;;;;;;;12.10;4.60;;;;;8.50;96452.00;;;;8255918;28;20198;-65
2023/10/15 07:41:38;;;;;;;16.87;4.67;;;;;8.60;96461.00;;;;8242443;28;20232;-65
2023/10/15 07:45:43;;;;;;;12.67;4.90;;;;;8.70;96471.00;;;;8248870;28;20221;-66
2023/10/15 07:49:46;;;;;;;17.63;5.03;;;;;8.90;96470.00;;;;8255066;28;20227;-65
2023/10/15 07:53:49;;;;;;;13.37;4.00;;;;;9.00;96473.00;;;;8240796;28;20238;-66
2023/10/15 07:57:53;;;;;;;11.33;4.30;;;;;9.10;96465.00;;;;8245954;28;20207;-66
2023/10/15 08:01:59;;;;;;;16.80;4.43;;;;;9.20;96479.00;;;;8251864;28;20222;-66
2023/10/15 08:06:03;;;;;;;11.17;4.73;;;;;9.30;96475.00;;;;8247841;28;20203;-66
2023/10/15 08:10:07;;;;;;;14.30;4.40;;;;;9.40;96468.00;;;;8256804;28;20235;-66
2023/10/15 08:14:10;;;;;;;17.50;4.38;;;;;9.50;96474.00;;;;8260042;28;20206;-65
2023/10/15 08:18:15;;;;;;;13.27;4.37;;;;;9.70;96471.00;;;;8246882;28;20202;-66
2023/10/15 08:22:18;;;;;;;11.77;3.90;;;;;9.70;96474.00;;;;8248758;28;20206;-65
2023/10/15 08:26:21;;;;;;;16.90;3.80;;;;;9.80;96478.00;;;;8238048;28;20302;-66
2023/10/15 08:30:24;;;;;;;19.95;4.00;;;;;9.80;96484.00;;;;8237999;28;20660;-66
2023/10/15 08:34:29;;;;;;;11.10;4.27;;;;;9.70;96471.00;;;;8235137;28;20217;-65
2023/10/15 08:38:32;;;;;;;11.73;4.28;;;;;9.70;96479.00;;;;8242899;28;20202;-65
2023/10/15 08:42:41;;;;;;;10.35;3.80;;;;;9.60;96485.00;;;;8236785;28;20282;-65
2023/10/15 08:46:47;;;;;;;13.93;4.33;;;;;9.60;96489.00;;;;8242497;28;20199;-67
2023/10/15 08:50:53;;;;;;;12.67;4.20;;;;;9.70;96472.00;;;;8255445;28;20222;-67
2023/10/15 08:54:58;;;;;;;23.33;4.38;;;;;9.90;96473.00;;;;8254578;28;20999;-66
2023/10/15 08:59:01;;;;;;;18.67;4.50;;;;;10.10;96486.00;;;;8262210;28;20629;-67
2023/10/15 09:03:05;;;;;;;12.65;4.43;;;;;10.30;96480.00;;;;8258025;28;20230;-67
2023/10/15 09:07:10;;;;;;;19.77;5.13;;;;;10.60;96468.00;;;;8256698;28;20235;-67
2023/10/15 09:11:13;;;;;;;16.98;5.00;;;;;10.90;96477.00;;;;8242572;28;20226;-67
2023/10/15 09:15:17;;;;;;;13.73;4.38;;;;;11.00;96470.00;;;;8256678;28;20206;-67
2023/10/15 09:19:20;;;;;;;10.77;4.38;;;;;11.10;96478.00;;;;8250381;28;20217;-66
2023/10/15 09:23:24;;;;;;;15.48;4.60;;;;;11.00;96480.00;;;;8252900;28;20195;-66
2023/10/15 09:27:28;;;;;;;15.80;5.10;;;;;11.00;96465.00;;;;8248119;28;20238;-67
2023/10/15 09:31:33;;;;;;;12.27;5.43;;;;;11.20;96463.00;;;;8252447;28;20235;-66
2023/10/15 09:35:38;;;;;;;18.23;4.57;;;;;11.20;96461.00;;;;8250752;28;20289;-66
2023/10/15 09:39:43;;;;;;;12.02;4.88;;;;;11.20;96458.00;;;;8256718;28;20226;-66
2023/10/15 09:43:49;;;;;;;16.80;4.78;;;;;11.10;96462.00;;;;8252877;28;20294;-67
2023/10/15 09:47:57;;;;;;;14.70;4.53;;;;;11.20;96467.00;;;;8254532;28;20204;-65
2023/10/15 09:52:04;;;;;;;11.60;4.50;;;;;11.20;96470.00;;;;8257645;28;20301;-66
2023/10/15 09:56:12;;;;;;;9.25;4.65;;;;;11.30;96470.00;;;;8247384;28;20213;-66
2023/10/15 10:00:19;;;;;;;11.02;4.15;;;;;11.50;96475.00;;;;8253744;28;20228;-66
2023/10/15 10:04:52;;;;;;;11.45;3.80;;;;;11.70;96473.00;;;;8257034;28;20312;-66
2023/10/15 10:09:16;;;;;;;15.90;4.03;;;;;11.80;96473.00;;;;8262039;28;20203;-66
2023/10/15 10:13:44;;;;;;;12.38;4.18;;;;;12.10;96475.00;;;;8240941;28;20201;-65
2023/10/15 10:17:49;;;;;;;11.55;4.05;;;;;12.10;96483.00;;;;8257796;28;20202;-66
2023/10/15 10:21:52;;;;;;;13.30;4.22;;;;;12.20;96477.00;;;;8249279;28;20201;-66
2023/10/15 10:25:58;;;;;;;13.93;4.30;;;;;12.30;96475.00;;;;8266605;28;20757;-66
2023/10/15 10:30:27;;;;;;;11.60;3.78;;;;;12.30;96477.00;;;;8256042;28;20303;-66
2023/10/15 10:34:30;;;;;;;11.90;3.30;;;;;12.20;96460.00;;;;8239729;28;20197;-66
2023/10/15 10:38:35;;;;;;;15.10;3.60;;;;;12.10;96468.00;;;;8255126;28;20206;-66
2023/10/15 10:42:39;;;;;;;11.73;2.70;;;;;11.90;96470.00;;;;8258507;28;20204;-65
2023/10/15 10:46:44;;;;;;;7.97;3.42;;;;;11.80;96463.00;;;;8260927;28;20210;-65
2023/10/15 10:50:48;;;;;;;10.75;2.90;;;;;11.90;96451.00;;;;8249169;28;20223;-65
2023/10/15 10:54:51;;;;;;;9.20;3.38;;;;;11.90;96452.00;;;;8251137;28;20198;-66
2023/10/15 10:58:55;;;;;;;154.68;114.60;;;;;12.10;96440.00;;;;8235684;28;20210;-66
2023/10/15 11:03:02;;;;;;;15.30;6.57;;;;;12.60;96434.00;;;;8254200;28;20308;-65
2023/10/15 11:07:05;;;;;;;13.30;4.93;;;;;12.50;96429.00;;;;8234348;28;20209;-65
2023/10/15 11:11:11;;;;;;;8.95;4.28;;;;;12.30;96428.00;;;;8240421;28;20267;-66
2023/10/15 11:15:14;;;;;;;13.40;5.05;;;;;12.10;96430.00;;;;8240700;28;20211;-65
2023/10/15 11:19:21;;;;;;;4.40;2.55;;;;;12.10;96418.00;;;;8239626;28;20564;-64
2023/10/15 11:23:26;;;;;;;10.95;2.40;;;;;12.30;96408.00;;;;8222431;28;20210;-65
2023/10/15 11:27:29;;;;;;;9.55;2.70;;;;;12.60;96413.00;;;;8237656;28;20286;-64
2023/10/15 11:31:34;;;;;;;78.80;56.92;;;;;12.60;96415.00;;;;8239646;28;20313;-64
2023/10/15 11:35:40;;;;;;;15.10;7.65;;;;;12.70;96417.00;;;;8245328;28;20233;-66
2023/10/15 11:39:47;;;;;;;11.02;3.67;;;;;12.60;96421.00;;;;8232259;28;20203;-65
2023/10/15 11:43:51;;;;;;;6.28;2.03;;;;;12.10;96443.00;;;;8235359;28;20236;-66
2023/10/15 11:47:56;;;;;;;3.50;2.10;;;;;11.20;96446.00;;;;8232704;28;20253;-67
2023/10/15 11:52:05;;;;;;;8.55;2.60;;;;;10.10;96442.00;;;;8244095;28;20588;-68
2023/10/15 11:56:16;;;;;;;8.50;2.63;;;;;9.70;96439.00;;;;8251387;28;20701;-71
2023/10/15 12:00:31;;;;;;;8.48;2.97;;;;;9.50;96432.00;;;;8253761;28;20202;-71
2023/10/15 12:04:34;;;;;;;5.38;2.15;;;;;9.40;96418.00;;;;8244944;28;20226;-69
2023/10/15 12:08:40;;;;;;;5.32;2.20;;;;;9.60;96409.00;;;;8246920;28;20207;-69
2023/10/15 12:12:45;;;;;;;4.22;2.45;;;;;9.90;96407.00;;;;8256398;28;20259;-71
2023/10/15 12:16:48;;;;;;;7.05;2.83;;;;;10.00;96407.00;;;;8245750;28;20205;-72
2023/10/15 12:20:51;;;;;;;8.97;2.87;;;;;10.00;96399.00;;;;8251737;28;20210;-70
2023/10/15 12:24:56;;;;;;;7.03;2.53;;;;;10.10;96395.00;;;;8256315;28;20250;-69
2023/10/15 12:28:59;;;;;;;17.58;6.90;;;;;10.10;96406.00;;;;8252729;28;20645;-70
2023/10/15 12:33:09;;;;;;;4.80;2.60;;;;;10.20;96397.00;;;;8254124;28;20321;-69
2023/10/15 12:37:13;;;;;;;5.63;2.88;;;;;10.30;96394.00;;;;8245252;28;20248;-68
2023/10/15 12:41:21;;;;;;;22.83;10.90;;;;;10.40;96402.00;;;;8245253;28;20295;-66
2023/10/15 12:45:24;;;;;;;13.27;7.88;;;;;10.40;96399.00;;;;8245288;28;20195;-66
2023/10/15 12:49:27;;;;;;;51.35;30.90;;;;;10.60;96395.00;;;;8264058;28;20194;-66
2023/10/15 12:53:31;;;;;;;6.80;3.60;;;;;10.50;96404.00;;;;8255571;28;20273;-66
2023/10/15 12:57:37;;;;;;;26.88;15.40;;;;;10.20;96411.00;;;;8251124;28;20250;-67
2023/10/15 13:01:42;;;;;;;16.92;12.70;;;;;9.90;96404.00;;;;8249369;28;20206;-66
2023/10/15 13:05:46;;;;;;;20.15;11.50;;;;;9.70;96429.00;;;;8247958;28;20203;-67
2023/10/15 13:09:49;;;;;;;6.40;1.85;;;;;9.50;96449.00;;;;8243021;28;20199;-67
2023/10/15 13:13:53;;;;;;;4.43;1.77;;;;;9.20;96434.00;;;;8253295;28;20570;-65
2023/10/15 13:17:57;;;;;;;5.00;2.72;;;;;9.10;96447.00;;;;8247611;28;20228;-66
2023/10/15 13:22:04;;;;;;;4.03;1.50;;;;;9.10;96440.00;;;;8248683;28;20645;-66
2023/10/15 13:26:08;;;;;;;7.28;1.55;;;;;9.10;96444.00;;;;8257018;28;20277;-66
2023/10/15 13:30:15;;;;;;;5.10;1.20;;;;;9.20;96439.00;;;;8256074;28;20206;-65
2023/10/15 13:34:20;;;;;;;2.50;1.13;;;;;9.20;96444.00;;;;8248447;28;20203;-66
2023/10/15 13:38:23;;;;;;;2.30;1.17;;;;;9.10;96447.00;;;;8249590;28;20302;-66
2023/10/15 13:42:26;;;;;;;2.13;1.10;;;;;9.10;96443.00;;;;8252099;28;20277;-66
2023/10/15 13:46:31;;;;;;;1.15;1.10;;;;;9.00;96443.00;;;;8259335;28;20553;-66
2023/10/15 13:50:34;;;;;;;1.80;1.20;;;;;9.10;96453.00;;;;8257414;28;20226;-66
2023/10/15 13:54:37;;;;;;;2.05;1.10;;;;;9.30;96447.00;;;;8248018;28;20214;-66
2023/10/15 13:58:41;;;;;;;4.35;1.10;;;;;9.40;96459.00;;;;8252375;28;20203;-67
2023/10/15 14:02:47;;;;;;;3.13;1.20;;;;;9.30;96456.00;;;;8255494;28;20222;-67
2023/10/15 14:06:50;;;;;;;0.90;0.90;;;;;9.30;96461.00;;;;8246872;28;20195;-67
2023/10/15 14:10:54;;;;;;;1.60;1.05;;;;;9.30;96461.00;;;;8255602;28;20651;-66
2023/10/15 14:15:10;;;;;;;2.38;1.23;;;;;9.30;96472.00;;;;8263987;28;20195;-66
2023/10/15 14:19:15;;;;;;;2.13;1.10;;;;;9.30;96471.00;;;;8239580;28;20623;-66
2023/10/15 14:23:20;;;;;;;2.63;1.30;;;;;9.50;96477.00;;;;8274175;28;20204;-66
2023/10/15 14:27:25;;;;;;;1.30;1.20;;;;;9.60;96488.00;;;;8257230;28;20615;-66
2023/10/15 14:31:28;;;;;;;3.05;1.52;;;;;9.80;96486.00;;;;8255417;28;20238;-67
2023/10/15 14:35:33;;;;;;;5.63;1.40;;;;;10.00;96490.00;;;;8254874;28;20290;-66
2023/10/15 14:39:36;;;;;;;2.17;1.10;;;;;10.00;96511.00;;;;8254400;28;20607;-66
2023/10/15 14:43:40;;;;;;;2.58;1.23;;;;;9.90;96527.00;;;;8251776;28;20202;-66
2023/10/15 14:47:43;;;;;;;5.88;1.73;;;;;9.80;96532.00;;;;8251666;28;20213;-66
2023/10/15 14:51:48;;;;;;;3.05;1.30;;;;;9.50;96530.00;;;;8246302;28;21070;-66
2023/10/15 14:55:51;;;;;;;1.40;1.30;;;;;9.20;96527.00;;;;8255623;28;20667;-66
2023/10/15 14:59:54;;;;;;;1.27;0.98;;;;;9.00;96529.00;;;;8246516;28;20191;-66
2023/10/15 15:03:58;;;;;;;1.48;1.10;;;;;9.00;96519.00;;;;8250439;28;20249;-66
2023/10/15 15:08:04;;;;;;;3.22;2.17;;;;;8.90;96519.00;;;;8249508;28;20250;-66
2023/10/15 15:12:08;;;;;;;1.48;1.33;;;;;8.90;96514.00;;;;8252332;28;20235;-66
2023/10/15 15:16:12;;;;;;;12.02;3.65;;;;;8.90;96528.00;;;;8254368;28;20987;-66
2023/10/15 15:20:16;;;;;;;4.90;1.53;;;;;8.80;96530.00;;;;8234832;28;20207;-66
2023/10/15 15:24:21;;;;;;;4.93;1.77;;;;;8.80;96530.00;;;;8256138;28;20200;-67
2023/10/15 15:28:24;;;;;;;5.83;3.53;;;;;8.80;96538.00;;;;8258510;28;20205;-67
2023/10/15 15:32:28;;;;;;;31.25;20.33;;;;;8.70;96541.00;;;;8245113;28;20249;-67
2023/10/15 15:36:31;;;;;;;20.13;14.73;;;;;8.70;96548.00;;;;8252940;28;20282;-65
2023/10/15 15:40:36;;;;;;;7.17;6.37;;;;;8.60;96550.00;;;;8256591;28;20295;-67
2023/10/15 15:44:39;;;;;;;3.83;3.23;;;;;8.60;96559.00;;;;8255301;28;20324;-67
2023/10/15 15:48:42;;;;;;;2.13;1.48;;;;;8.50;96558.00;;;;8251612;28;20305;-67
2023/10/15 15:52:45;;;;;;;2.03;1.33;;;;;8.50;96560.00;;;;8251900;28;20227;-67
2023/10/15 15:56:50;;;;;;;1.35;1.25;;;;;8.40;96565.00;;;;8258204;28;20289;-65
2023/10/15 16:00:53;;;;;;;1.83;1.30;;;;;8.30;96569.00;;;;8248932;28;20195;-67
2023/10/15 16:04:57;;;;;;;1.95;1.23;;;;;8.20;96576.00;;;;8251078;28;20258;-67
2023/10/15 16:09:00;;;;;;;3.10;1.50;;;;;8.10;96588.00;;;;8241226;28;20207;-66
2023/10/15 16:13:05;;;;;;;37.80;29.27;;;;;8.00;96593.00;;;;8245616;28;20305;-66
2023/10/15 16:17:08;;;;;;;40.13;25.63;;;;;7.90;96603.00;;;;8258900;28;20206;-66
2023/10/15 16:21:11;;;;;;;8.57;4.97;;;;;7.80;96605.00;;;;8254936;28;20242;-65
2023/10/15 16:25:15;;;;;;;536.13;294.33;;;;;7.70;96618.00;;;;8251776;28;20234;-66
2023/10/15 16:29:20;;;;;;;37.67;22.43;;;;;7.60;96618.00;;;;8251108;28;20295;-66
2023/10/15 16:33:23;;;;;;;58.53;31.37;;;;;7.50;96630.00;;;;8244541;28;20647;-66
2023/10/15 16:37:26;;;;;;;13.43;7.67;;;;;7.40;96646.00;;;;8239655;28;20828;-66
2023/10/15 16:41:29;;;;;;;4.97;2.83;;;;;7.30;96649.00;;;;8244808;28;20667;-66
2023/10/15 16:45:34;;;;;;;96.63;47.67;;;;;7.20;96656.00;;;;8248916;28;20213;-66
2023/10/15 16:49:37;;;;;;;5.50;4.20;;;;;7.10;96669.00;;;;8246311;28;20217;-66
2023/10/15 16:53:40;;;;;;;118.00;49.17;;;;;7.10;96672.00;;;;8248415;28;20632;-66
2023/10/15 16:57:43;;;;;;;106.37;43.17;;;;;7.00;96681.00;;;;8237231;28;20695;-64
2023/10/15 17:01:48;;;;;;;32.33;17.80;;;;;7.00;96678.00;;;;8244068;28;20211;-64
2023/10/15 17:05:51;;;;;;;9.97;6.00;;;;;6.90;96675.00;;;;8242092;28;20195;-65
2023/10/15 17:09:54;;;;;;;1.93;1.80;;;;;6.80;96699.00;;;;8242757;28;20199;-65
2023/10/15 17:13:57;;;;;;;2.70;1.93;;;;;6.70;96701.00;;;;8249093;28;20326;-65
2023/10/15 17:18:02;;;;;;;4.20;2.80;;;;;6.70;96702.00;;;;8246773;28;20213;-65
2023/10/15 17:22:05;;;;;;;3.03;2.00;;;;;6.60;96707.00;;;;8237591;28;20204;-65
2023/10/15 17:26:09;;;;;;;7.77;4.77;;;;;6.40;96709.00;;;;8248964;28;20298;-65
2023/10/15 17:30:16;;;;;;;6.27;2.10;;;;;6.30;96715.00;;;;8253149;28;20284;-66
2023/10/15 17:34:23;;;;;;;2.97;1.90;;;;;6.20;96715.00;;;;8254785;28;20261;-66
2023/10/15 17:38:26;;;;;;;4.77;2.00;;;;;6.20;96717.00;;;;8264651;28;20203;-66
2023/10/15 17:42:29;;;;;;;3.30;1.73;;;;;6.10;96714.00;;;;8263783;28;20200;-66
2023/10/15 17:46:32;;;;;;;4.17;2.40;;;;;6.00;96713.00;;;;8253828;28;20811;-66
2023/10/15 17:50:37;;;;;;;3.87;2.27;;;;;5.90;96711.00;;;;8248268;28;20282;-66
2023/10/15 17:54:40;;;;;;;6.03;2.57;;;;;5.80;96719.00;;;;8260988;28;20219;-66
2023/10/15 17:58:43;;;;;;;4.37;2.53;;;;;5.70;96719.00;;;;8257463;28;20252;-66
2023/10/15 18:02:46;;;;;;;8.50;2.47;;;;;5.60;96718.00;;;;8271046;28;20229;-66
2023/10/15 18:06:52;;;;;;;3.27;2.93;;;;;5.50;96721.00;;;;8269450;28;20202;-66
2023/10/15 18:10:55;;;;;;;4.77;2.70;;;;;5.30;96726.00;;;;8258510;28;20286;-66
2023/10/15 18:14:58;;;;;;;4.07;2.50;;;;;5.20;96741.00;;;;8251583;28;20259;-66
2023/10/15 18:19:01;;;;;;;10.03;3.60;;;;;5.10;96748.00;;;;8258115;28;20210;-65
2023/10/15 18:23:06;;;;;;;4.70;2.90;;;;;5.00;96747.00;;;;8260867;28;20296;-65
2023/10/15 18:27:10;;;;;;;3.43;2.63;;;;;4.90;96751.00;;;;8258404;28;20297;-65
2023/10/15 18:31:13;;;;;;;3.17;2.57;;;;;4.80;96754.00;;;;8260955;28;20286;-66
2023/10/15 18:35:16;;;;;;;3.63;2.80;;;;;4.80;96753.00;;;;8251564;28;20289;-65
2023/10/15 18:39:21;;;;;;;4.57;2.83;;;;;4.70;96766.00;;;;8257267;28;20595;-65
2023/10/15 18:43:24;;;;;;;5.60;3.23;;;;;4.50;96765.00;;;;8260971;28;20625;-65
2023/10/15 18:47:28;;;;;;;7.63;3.60;;;;;4.40;96776.00;;;;8250957;28;20295;-65
2023/10/15 18:51:32;;;;;;;3.30;3.00;;;;;4.30;96789.00;;;;8256695;28;20202;-65
2023/10/15 18:55:42;;;;;;;3.57;3.27;;;;;4.20;96789.00;;;;8251908;28;20223;-65
2023/10/15 18:59:45;;;;;;;8.60;3.67;;;;;4.10;96787.00;;;;8248705;28;20297;-65
2023/10/15 19:03:48;;;;;;;3.73;2.90;;;;;4.00;96798.00;;;;8251350;28;20228;-65
2023/10/15 19:07:52;;;;;;;4.00;2.97;;;;;3.90;96801.00;;;;8248764;28;20618;-65
2023/10/15 19:11:56;;;;;;;3.97;2.70;;;;;3.80;96812.00;;;;8254471;28;20908;-65
2023/10/15 19:16:00;;;;;;;6.93;2.90;;;;;3.70;96810.00;;;;8246297;28;20293;-64
2023/10/15 19:20:10;;;;;;;6.37;2.97;;;;;3.60;96816.00;;;;8246798;28;20211;-65
2023/10/15 19:24:13;;;;;;;5.93;3.90;;;;;3.50;96818.00;;;;8258937;28;20207;-64
2023/10/15 19:28:19;;;;;;;7.23;4.10;;;;;3.40;96816.00;;;;8276628;28;20355;-64
2023/10/15 19:32:22;;;;;;;5.97;4.10;;;;;3.30;96816.00;;;;8270749;28;20209;-64
2023/10/15 19:36:25;;;;;;;8.90;4.97;;;;;3.20;96817.00;;;;8256824;28;20290;-63
2023/10/15 19:40:28;;;;;;;9.33;3.80;;;;;3.20;96827.00;;;;8263050;28;20267;-63
2023/10/15 19:44:33;;;;;;;10.17;4.33;;;;;3.20;96827.00;;;;8255480;28;20203;-64
2023/10/15 19:48:36;;;;;;;6.60;3.50;;;;;3.30;96835.00;;;;8257949;28;20229;-63
2023/10/15 19:52:39;;;;;;;9.17;4.23;;;;;3.40;96837.00;;;;8253182;28;20237;-63
2023/10/15 19:56:43;;;;;;;9.27;3.53;;;;;3.50;96841.00;;;;8250874;28;20288;-63
2023/10/15 20:00:49;;;;;;;10.37;3.87;;;;;3.50;96856.00;;;;8254874;28;20208;-63
2023/10/15 20:04:53;;;;;;;8.93;4.20;;;;;3.40;96855.00;;;;8255193;28;20334;-63
2023/10/15 20:08:56;;;;;;;8.70;3.70;;;;;3.40;96851.00;;;;8258012;28;20201;-63
2023/10/15 20:13:00;;;;;;;6.43;4.50;;;;;3.20;96858.00;;;;8264252;28;20232;-62
2023/10/15 20:17:05;;;;;;;7.60;3.90;;;;;3.20;96855.00;;;;8257207;28;20192;-62
2023/10/15 20:21:08;;;;;;;10.03;4.20;;;;;3.10;96846.00;;;;8256145;28;20241;-63
2023/10/15 20:25:11;;;;;;;10.83;4.50;;;;;3.00;96858.00;;;;8260394;28;20287;-62
2023/10/15 20:29:15;;;;;;;10.90;4.50;;;;;3.00;96861.00;;;;8256320;28;20215;-62